Wakefield, RI

7:00 PM EDT on April 27, 2017 (GMT -0400)
Stone Cove Marina | | Change Station
Active Advisory: Dense Fog Advisory

Elev 0 ft 41.43 °N, 71.49 °W | Updated 1 second ago

Overcast
Overcast
53.8 °F
Feels Like 53.8 °F
N
0.0
Wind Variable Wind from SSE

Today
High -- | Low -- °F
--% Chance of Precip.
Yesterday
High -- | Low -- °F
Precip. -- in
Pressure 29.93 in
Visibility 10.0 miles
Clouds Mostly Cloudy 400 ft
Mostly Cloudy 1800 ft
Dew Point 54 °F
Humidity 100%
Rainfall Not available.
Snow Depth Not available.
5:48 AM 7:39 PM
Waxing Crescent, 3% visible
METAR KUUU 272253Z AUTO 19007KT 10SM BKN004 BKN018 13/13 A2993 RMK AO2 SLP133 T01330133
Pressure 29.93 in
Visibility 10.0 miles
Clouds Mostly Cloudy 400 ft
Mostly Cloudy 1800 ft
Dew Point 54 °F
Humidity 100%
Rainfall Not available.
Snow Depth Not available.
5:48 AM 7:39 PM
Waxing Crescent, 3% visible
METAR KUUU 272253Z AUTO 19007KT 10SM BKN004 BKN018 13/13 A2993 RMK AO2 SLP133 T01330133

Get Your Daily Forecast Email!

Thanks for signing up!

Be on the lookout for a verification email in your inbox.

You'll start receiving severe weather alerts in your inbox..

×

10-Day Weather Forecast

Almanac

Astronomy

Apr. 27, 2017 Rise Set
Actual Time
Civil Twilight
Nautical Twilight
Astronomical Twilight
Moon
Length of Visible Light
Length of Day
Tomorrow will be .
, % of the Moon is Illuminated

Today's Extremes

State Highs State Lows

Community

WunderPhotos

WunderBlog® & News

Nearby

Air Quality

  Air Quality AQ Index Pollutant
Not available.

Snow Depth

Station Depth Elevation

Earthquake Activity

City Distance Mag. Time & Date
Minimum magnitude displayed is 2.5.

Coastal Water Temperatures

Place Temperature

Stations

Nearby Weather Stations

Station Location Temp. Windchill Dew Point Humidity Wind Precip. Elev Updated Type
                   

Watches & Warnings

Dense Fog Advisory
Issued: 3:52 PM EDT Apr. 27, 2017 – National Weather Service

... Dense fog advisory in effect from 8 PM this evening to 5 am
EDT Friday...

The National Weather Service in Taunton has issued a dense fog
advisory, which is in effect from 8 PM this evening to 5 am EDT
Friday.

* Location... south coastal Rhode Island and Massachusetts.
Including Cape Cod and the islands

* visibilities... one quarter mile or less at times.

* Timing... this evening and overnight.

* Impacts... visibility in fog may change rapidly and drop to below
a quarter mile at times. Motorists are urged to use caution and
allow for extra travel time and distance between vehicles.

Precautionary/preparedness actions...

A dense fog advisory means visibilities will frequently be
reduced to less than one quarter mile, for at least 3 hours. If
driving, slow down, use your headlights, and leave plenty of
distance ahead of you.



For the latest updates... please visit our webpage at
www.Weather.Gov/Boston

You can follow US on facebook at